sensor_id;sensor_type;location;lat;lon;timestamp;P1;durP1;ratioP1;P2;durP2;ratioP2
70026;SDS011;57506;50.092;15.804;2023-02-01T00:01:39;4.05;;;1.33;;
70026;SDS011;57506;50.092;15.804;2023-02-01T00:04:05;4.37;;;1.57;;
70026;SDS011;57506;50.092;15.804;2023-02-01T00:06:30;4.15;;;1.40;;
70026;SDS011;57506;50.092;15.804;2023-02-01T00:08:56;3.83;;;1.40;;
70026;SDS011;57506;50.092;15.804;2023-02-01T00:11:22;5.13;;;1.58;;
70026;SDS011;57506;50.092;15.804;2023-02-01T00:13:48;3.90;;;1.40;;
70026;SDS011;57506;50.092;15.804;2023-02-01T00:16:19;4.63;;;1.77;;
70026;SDS011;57506;50.092;15.804;2023-02-01T00:19:04;4.85;;;1.45;;
70026;SDS011;57506;50.092;15.804;2023-02-01T00:21:31;4.00;;;1.30;;
70026;SDS011;57506;50.092;15.804;2023-02-01T00:23:57;4.63;;;1.73;;
70026;SDS011;57506;50.092;15.804;2023-02-01T00:28:48;4.37;;;1.57;;
70026;SDS011;57506;50.092;15.804;2023-02-01T00:31:14;4.20;;;1.47;;
70026;SDS011;57506;50.092;15.804;2023-02-01T00:33:40;4.30;;;1.30;;
70026;SDS011;57506;50.092;15.804;2023-02-01T00:36:06;4.13;;;1.20;;
70026;SDS011;57506;50.092;15.804;2023-02-01T00:38:33;5.10;;;0.95;;
70026;SDS011;57506;50.092;15.804;2023-02-01T00:41:05;3.92;;;1.23;;
70026;SDS011;57506;50.092;15.804;2023-02-01T00:43:32;3.97;;;1.30;;
70026;SDS011;57506;50.092;15.804;2023-02-01T00:45:59;4.50;;;1.40;;
70026;SDS011;57506;50.092;15.804;2023-02-01T00:48:24;4.68;;;1.40;;
70026;SDS011;57506;50.092;15.804;2023-02-01T00:50:50;4.70;;;1.30;;
70026;SDS011;57506;50.092;15.804;2023-02-01T00:53:16;4.60;;;1.35;;
70026;SDS011;57506;50.092;15.804;2023-02-01T00:55:47;3.10;;;0.90;;
70026;SDS011;57506;50.092;15.804;2023-02-01T00:58:13;4.70;;;1.48;;
70026;SDS011;57506;50.092;15.804;2023-02-01T01:00:39;3.80;;;1.10;;
70026;SDS011;57506;50.092;15.804;2023-02-01T01:03:05;4.95;;;1.40;;
70026;SDS011;57506;50.092;15.804;2023-02-01T01:05:47;4.22;;;1.10;;
70026;SDS011;57506;50.092;15.804;2023-02-01T01:08:14;5.00;;;1.43;;
70026;SDS011;57506;50.092;15.804;2023-02-01T01:10:41;3.60;;;1.00;;
70026;SDS011;57506;50.092;15.804;2023-02-01T01:13:07;5.28;;;1.30;;
70026;SDS011;57506;50.092;15.804;2023-02-01T01:15:39;5.25;;;1.60;;
70026;SDS011;57506;50.092;15.804;2023-02-01T01:18:06;4.55;;;1.25;;
70026;SDS011;57506;50.092;15.804;2023-02-01T01:20:35;3.77;;;1.30;;
70026;SDS011;57506;50.092;15.804;2023-02-01T01:23:03;7.38;;;1.35;;
70026;SDS011;57506;50.092;15.804;2023-02-01T01:25:29;5.35;;;1.40;;
70026;SDS011;57506;50.092;15.804;2023-02-01T01:27:55;3.90;;;1.00;;
70026;SDS011;57506;50.092;15.804;2023-02-01T01:30:20;4.73;;;1.60;;
70026;SDS011;57506;50.092;15.804;2023-02-01T01:32:46;3.90;;;1.27;;
70026;SDS011;57506;50.092;15.804;2023-02-01T01:35:11;5.35;;;1.58;;
70026;SDS011;57506;50.092;15.804;2023-02-01T01:37:37;6.03;;;1.40;;
70026;SDS011;57506;50.092;15.804;2023-02-01T01:40:04;4.85;;;1.02;;
70026;SDS011;57506;50.092;15.804;2023-02-01T01:42:36;6.28;;;1.30;;
70026;SDS011;57506;50.092;15.804;2023-02-01T01:45:04;4.83;;;1.10;;
70026;SDS011;57506;50.092;15.804;2023-02-01T01:47:33;4.88;;;1.20;;
70026;SDS011;57506;50.092;15.804;2023-02-01T01:50:07;4.68;;;1.40;;
70026;SDS011;57506;50.092;15.804;2023-02-01T01:52:36;4.45;;;1.20;;
70026;SDS011;57506;50.092;15.804;2023-02-01T01:55:03;5.20;;;1.13;;
70026;SDS011;57506;50.092;15.804;2023-02-01T01:57:31;4.67;;;1.20;;
70026;SDS011;57506;50.092;15.804;2023-02-01T02:02:36;4.10;;;1.13;;
70026;SDS011;57506;50.092;15.804;2023-02-01T02:05:04;3.95;;;1.25;;
70026;SDS011;57506;50.092;15.804;2023-02-01T02:07:32;5.85;;;1.50;;
70026;SDS011;57506;50.092;15.804;2023-02-01T02:10:03;4.33;;;1.20;;
70026;SDS011;57506;50.092;15.804;2023-02-01T02:12:31;7.28;;;1.17;;
70026;SDS011;57506;50.092;15.804;2023-02-01T02:14:57;3.42;;;1.20;;
70026;SDS011;57506;50.092;15.804;2023-02-01T02:25:27;3.22;;;1.10;;
70026;SDS011;57506;50.092;15.804;2023-02-01T02:39:06;5.05;;;1.30;;
70026;SDS011;57506;50.092;15.804;2023-02-01T02:41:48;4.50;;;1.60;;
70026;SDS011;57506;50.092;15.804;2023-02-01T02:44:49;4.00;;;1.30;;
70026;SDS011;57506;50.092;15.804;2023-02-01T02:48:13;5.20;;;1.60;;
70026;SDS011;57506;50.092;15.804;2023-02-01T02:51:20;3.67;;;1.30;;
70026;SDS011;57506;50.092;15.804;2023-02-01T02:56:39;4.63;;;1.48;;
70026;SDS011;57506;50.092;15.804;2023-02-01T02:59:24;9.33;;;1.93;;
70026;SDS011;57506;50.092;15.804;2023-02-01T03:02:10;4.88;;;1.42;;
70026;SDS011;57506;50.092;15.804;2023-02-01T03:04:57;6.65;;;1.80;;
70026;SDS011;57506;50.092;15.804;2023-02-01T03:20:57;5.10;;;1.40;;
70026;SDS011;57506;50.092;15.804;2023-02-01T03:23:26;5.18;;;1.60;;
70026;SDS011;57506;50.092;15.804;2023-02-01T03:25:55;4.88;;;1.60;;
70026;SDS011;57506;50.092;15.804;2023-02-01T03:28:23;5.57;;;1.23;;
70026;SDS011;57506;50.092;15.804;2023-02-01T03:30:53;7.25;;;1.75;;
70026;SDS011;57506;50.092;15.804;2023-02-01T03:33:19;6.67;;;1.53;;
70026;SDS011;57506;50.092;15.804;2023-02-01T03:35:52;6.97;;;1.98;;
70026;SDS011;57506;50.092;15.804;2023-02-01T03:44:17;5.23;;;1.60;;
70026;SDS011;57506;50.092;15.804;2023-02-01T03:49:29;6.38;;;1.58;;
70026;SDS011;57506;50.092;15.804;2023-02-01T03:51:59;7.25;;;1.63;;
70026;SDS011;57506;50.092;15.804;2023-02-01T03:54:27;5.53;;;1.38;;
70026;SDS011;57506;50.092;15.804;2023-02-01T03:56:54;7.20;;;1.33;;
70026;SDS011;57506;50.092;15.804;2023-02-01T03:59:24;6.80;;;1.00;;
70026;SDS011;57506;50.092;15.804;2023-02-01T04:01:49;5.03;;;1.53;;
70026;SDS011;57506;50.092;15.804;2023-02-01T04:04:15;6.73;;;1.43;;
70026;SDS011;57506;50.092;15.804;2023-02-01T04:06:50;8.38;;;1.60;;
70026;SDS011;57506;50.092;15.804;2023-02-01T04:09:16;6.32;;;0.90;;
70026;SDS011;57506;50.092;15.804;2023-02-01T04:11:43;7.65;;;1.50;;
70026;SDS011;57506;50.092;15.804;2023-02-01T04:14:08;6.33;;;1.20;;
70026;SDS011;57506;50.092;15.804;2023-02-01T04:16:34;4.57;;;1.20;;
70026;SDS011;57506;50.092;15.804;2023-02-01T04:19:00;6.60;;;1.40;;
70026;SDS011;57506;50.092;15.804;2023-02-01T04:21:26;6.13;;;1.30;;
70026;SDS011;57506;50.092;15.804;2023-02-01T04:23:52;5.85;;;1.30;;
70026;SDS011;57506;50.092;15.804;2023-02-01T04:26:18;7.53;;;1.20;;
70026;SDS011;57506;50.092;15.804;2023-02-01T04:28:44;4.03;;;0.95;;
70026;SDS011;57506;50.092;15.804;2023-02-01T04:31:13;4.93;;;1.40;;
70026;SDS011;57506;50.092;15.804;2023-02-01T04:33:39;4.85;;;0.98;;
70026;SDS011;57506;50.092;15.804;2023-02-01T04:36:04;7.83;;;1.13;;
70026;SDS011;57506;50.092;15.804;2023-02-01T04:38:30;7.22;;;1.33;;
70026;SDS011;57506;50.092;15.804;2023-02-01T04:40:57;5.38;;;1.02;;
70026;SDS011;57506;50.092;15.804;2023-02-01T04:43:23;6.47;;;1.10;;
70026;SDS011;57506;50.092;15.804;2023-02-01T04:45:49;5.50;;;1.33;;
70026;SDS011;57506;50.092;15.804;2023-02-01T04:48:16;5.75;;;0.95;;
70026;SDS011;57506;50.092;15.804;2023-02-01T04:50:43;5.55;;;1.40;;
70026;SDS011;57506;50.092;15.804;2023-02-01T04:53:12;5.57;;;1.10;;
70026;SDS011;57506;50.092;15.804;2023-02-01T04:55:39;6.38;;;0.88;;
70026;SDS011;57506;50.092;15.804;2023-02-01T04:58:05;5.93;;;1.40;;
70026;SDS011;57506;50.092;15.804;2023-02-01T05:00:31;5.25;;;1.10;;
70026;SDS011;57506;50.092;15.804;2023-02-01T05:02:56;7.00;;;1.30;;
70026;SDS011;57506;50.092;15.804;2023-02-01T05:05:22;6.90;;;0.90;;
70026;SDS011;57506;50.092;15.804;2023-02-01T05:07:47;4.50;;;0.90;;
70026;SDS011;57506;50.092;15.804;2023-02-01T05:10:13;7.23;;;1.20;;
70026;SDS011;57506;50.092;15.804;2023-02-01T05:12:38;5.07;;;0.80;;
70026;SDS011;57506;50.092;15.804;2023-02-01T05:15:22;4.30;;;1.00;;
70026;SDS011;57506;50.092;15.804;2023-02-01T05:17:48;5.60;;;0.90;;
70026;SDS011;57506;50.092;15.804;2023-02-01T05:20:13;5.18;;;0.85;;
70026;SDS011;57506;50.092;15.804;2023-02-01T05:22:39;9.57;;;1.17;;
70026;SDS011;57506;50.092;15.804;2023-02-01T05:25:07;4.85;;;0.90;;
70026;SDS011;57506;50.092;15.804;2023-02-01T05:27:33;4.73;;;1.30;;
70026;SDS011;57506;50.092;15.804;2023-02-01T05:29:58;5.20;;;1.15;;
70026;SDS011;57506;50.092;15.804;2023-02-01T05:32:23;5.57;;;1.00;;
70026;SDS011;57506;50.092;15.804;2023-02-01T05:34:49;6.77;;;1.00;;
70026;SDS011;57506;50.092;15.804;2023-02-01T05:37:14;9.90;;;1.25;;
70026;SDS011;57506;50.092;15.804;2023-02-01T05:39:40;6.50;;;1.10;;
70026;SDS011;57506;50.092;15.804;2023-02-01T05:42:06;6.00;;;1.07;;
70026;SDS011;57506;50.092;15.804;2023-02-01T05:44:31;4.90;;;0.80;;
70026;SDS011;57506;50.092;15.804;2023-02-01T05:46:57;4.83;;;0.80;;
70026;SDS011;57506;50.092;15.804;2023-02-01T05:49:22;6.33;;;1.23;;
70026;SDS011;57506;50.092;15.804;2023-02-01T05:51:48;6.80;;;1.15;;
70026;SDS011;57506;50.092;15.804;2023-02-01T05:54:13;4.37;;;1.13;;
70026;SDS011;57506;50.092;15.804;2023-02-01T05:56:39;7.00;;;1.00;;
70026;SDS011;57506;50.092;15.804;2023-02-01T05:59:05;4.78;;;1.20;;
70026;SDS011;57506;50.092;15.804;2023-02-01T06:01:31;5.40;;;0.98;;
70026;SDS011;57506;50.092;15.804;2023-02-01T06:03:56;8.37;;;1.37;;
70026;SDS011;57506;50.092;15.804;2023-02-01T06:06:22;11.33;;;1.40;;
70026;SDS011;57506;50.092;15.804;2023-02-01T06:08:48;8.70;;;1.38;;
70026;SDS011;57506;50.092;15.804;2023-02-01T06:11:13;5.70;;;1.20;;
70026;SDS011;57506;50.092;15.804;2023-02-01T06:13:39;6.33;;;1.40;;
70026;SDS011;57506;50.092;15.804;2023-02-01T06:16:04;4.00;;;1.00;;
70026;SDS011;57506;50.092;15.804;2023-02-01T06:18:33;6.60;;;1.05;;
70026;SDS011;57506;50.092;15.804;2023-02-01T06:20:59;5.85;;;1.33;;
70026;SDS011;57506;50.092;15.804;2023-02-01T06:23:25;7.47;;;1.20;;
70026;SDS011;57506;50.092;15.804;2023-02-01T06:25:52;4.78;;;1.10;;
70026;SDS011;57506;50.092;15.804;2023-02-01T06:28:28;6.43;;;1.33;;
70026;SDS011;57506;50.092;15.804;2023-02-01T06:30:54;6.65;;;1.73;;
70026;SDS011;57506;50.092;15.804;2023-02-01T06:33:20;9.05;;;1.75;;
70026;SDS011;57506;50.092;15.804;2023-02-01T06:35:46;4.30;;;1.17;;
70026;SDS011;57506;50.092;15.804;2023-02-01T06:38:12;6.25;;;1.40;;
70026;SDS011;57506;50.092;15.804;2023-02-01T06:40:38;9.20;;;1.77;;
70026;SDS011;57506;50.092;15.804;2023-02-01T06:43:07;6.80;;;1.50;;
70026;SDS011;57506;50.092;15.804;2023-02-01T06:45:32;10.63;;;1.73;;
70026;SDS011;57506;50.092;15.804;2023-02-01T06:47:58;7.77;;;1.43;;
70026;SDS011;57506;50.092;15.804;2023-02-01T06:50:25;6.93;;;1.83;;
70026;SDS011;57506;50.092;15.804;2023-02-01T06:52:52;7.10;;;1.48;;
70026;SDS011;57506;50.092;15.804;2023-02-01T06:55:17;7.87;;;1.70;;
70026;SDS011;57506;50.092;15.804;2023-02-01T06:57:43;7.10;;;1.63;;
70026;SDS011;57506;50.092;15.804;2023-02-01T07:00:08;5.80;;;1.60;;
70026;SDS011;57506;50.092;15.804;2023-02-01T07:02:34;9.43;;;1.80;;
70026;SDS011;57506;50.092;15.804;2023-02-01T07:05:00;7.22;;;1.40;;
70026;SDS011;57506;50.092;15.804;2023-02-01T07:07:26;7.53;;;1.57;;
70026;SDS011;57506;50.092;15.804;2023-02-01T07:09:51;7.17;;;1.20;;
70026;SDS011;57506;50.092;15.804;2023-02-01T07:12:17;5.68;;;2.05;;
70026;SDS011;57506;50.092;15.804;2023-02-01T07:14:44;9.63;;;1.63;;
70026;SDS011;57506;50.092;15.804;2023-02-01T07:17:09;6.35;;;1.23;;
70026;SDS011;57506;50.092;15.804;2023-02-01T07:19:35;6.77;;;2.00;;
70026;SDS011;57506;50.092;15.804;2023-02-01T07:22:00;6.30;;;1.20;;
70026;SDS011;57506;50.092;15.804;2023-02-01T07:24:26;5.30;;;1.20;;
70026;SDS011;57506;50.092;15.804;2023-02-01T07:26:51;9.30;;;2.10;;
70026;SDS011;57506;50.092;15.804;2023-02-01T07:29:17;7.53;;;1.50;;
70026;SDS011;57506;50.092;15.804;2023-02-01T07:31:44;7.80;;;1.20;;
70026;SDS011;57506;50.092;15.804;2023-02-01T07:34:09;7.45;;;1.23;;
70026;SDS011;57506;50.092;15.804;2023-02-01T07:36:35;7.27;;;1.80;;
70026;SDS011;57506;50.092;15.804;2023-02-01T07:39:01;7.07;;;1.75;;
70026;SDS011;57506;50.092;15.804;2023-02-01T07:41:28;6.10;;;1.70;;
70026;SDS011;57506;50.092;15.804;2023-02-01T07:43:54;7.18;;;1.13;;
70026;SDS011;57506;50.092;15.804;2023-02-01T07:46:20;7.32;;;1.33;;
70026;SDS011;57506;50.092;15.804;2023-02-01T07:48:46;4.60;;;1.13;;
70026;SDS011;57506;50.092;15.804;2023-02-01T07:51:16;9.60;;;1.60;;
70026;SDS011;57506;50.092;15.804;2023-02-01T07:53:42;5.85;;;1.45;;
70026;SDS011;57506;50.092;15.804;2023-02-01T07:56:15;6.90;;;1.38;;
70026;SDS011;57506;50.092;15.804;2023-02-01T07:58:42;7.70;;;1.30;;
70026;SDS011;57506;50.092;15.804;2023-02-01T08:01:13;8.02;;;1.60;;
70026;SDS011;57506;50.092;15.804;2023-02-01T08:03:51;7.57;;;1.80;;
70026;SDS011;57506;50.092;15.804;2023-02-01T08:06:18;4.95;;;1.50;;
70026;SDS011;57506;50.092;15.804;2023-02-01T08:08:47;4.53;;;1.35;;
70026;SDS011;57506;50.092;15.804;2023-02-01T08:11:14;6.47;;;1.30;;
70026;SDS011;57506;50.092;15.804;2023-02-01T08:13:41;5.97;;;0.95;;
70026;SDS011;57506;50.092;15.804;2023-02-01T08:16:08;6.20;;;1.20;;
70026;SDS011;57506;50.092;15.804;2023-02-01T08:18:35;8.07;;;1.42;;
70026;SDS011;57506;50.092;15.804;2023-02-01T08:23:32;5.20;;;1.00;;
70026;SDS011;57506;50.092;15.804;2023-02-01T08:28:42;4.47;;;0.93;;
70026;SDS011;57506;50.092;15.804;2023-02-01T08:31:10;6.55;;;1.00;;
70026;SDS011;57506;50.092;15.804;2023-02-01T08:33:39;4.05;;;1.02;;
70026;SDS011;57506;50.092;15.804;2023-02-01T08:36:06;9.90;;;1.10;;
70026;SDS011;57506;50.092;15.804;2023-02-01T08:38:37;5.70;;;1.20;;
70026;SDS011;57506;50.092;15.804;2023-02-01T08:41:11;7.07;;;1.60;;
70026;SDS011;57506;50.092;15.804;2023-02-01T08:43:43;9.23;;;1.50;;
70026;SDS011;57506;50.092;15.804;2023-02-01T08:46:09;7.55;;;2.17;;
70026;SDS011;57506;50.092;15.804;2023-02-01T08:48:36;7.90;;;1.55;;
70026;SDS011;57506;50.092;15.804;2023-02-01T08:51:06;11.68;;;1.70;;
70026;SDS011;57506;50.092;15.804;2023-02-01T08:53:36;8.10;;;1.80;;
70026;SDS011;57506;50.092;15.804;2023-02-01T08:56:05;10.75;;;1.70;;
70026;SDS011;57506;50.092;15.804;2023-02-01T08:58:32;5.75;;;1.70;;
70026;SDS011;57506;50.092;15.804;2023-02-01T09:01:01;8.20;;;2.10;;
70026;SDS011;57506;50.092;15.804;2023-02-01T09:03:28;6.13;;;1.60;;
70026;SDS011;57506;50.092;15.804;2023-02-01T09:05:59;8.67;;;2.13;;
70026;SDS011;57506;50.092;15.804;2023-02-01T09:08:32;10.48;;;2.15;;
70026;SDS011;57506;50.092;15.804;2023-02-01T09:11:01;10.98;;;2.00;;
70026;SDS011;57506;50.092;15.804;2023-02-01T09:13:30;9.38;;;2.00;;
70026;SDS011;57506;50.092;15.804;2023-02-01T09:15:55;13.63;;;2.65;;
70026;SDS011;57506;50.092;15.804;2023-02-01T09:18:21;9.00;;;2.30;;
70026;SDS011;57506;50.092;15.804;2023-02-01T09:20:47;8.98;;;2.40;;
70026;SDS011;57506;50.092;15.804;2023-02-01T09:23:12;11.63;;;2.37;;
70026;SDS011;57506;50.092;15.804;2023-02-01T09:25:38;10.30;;;2.30;;
70026;SDS011;57506;50.092;15.804;2023-02-01T09:28:04;8.68;;;2.38;;
70026;SDS011;57506;50.092;15.804;2023-02-01T09:30:34;7.32;;;2.33;;
70026;SDS011;57506;50.092;15.804;2023-02-01T09:33:00;9.67;;;3.13;;
70026;SDS011;57506;50.092;15.804;2023-02-01T09:35:26;12.63;;;2.45;;
70026;SDS011;57506;50.092;15.804;2023-02-01T09:37:52;6.38;;;2.13;;
70026;SDS011;57506;50.092;15.804;2023-02-01T09:40:18;9.23;;;2.50;;
70026;SDS011;57506;50.092;15.804;2023-02-01T09:42:48;9.95;;;2.30;;
70026;SDS011;57506;50.092;15.804;2023-02-01T09:45:40;9.30;;;2.40;;
70026;SDS011;57506;50.092;15.804;2023-02-01T09:48:13;6.47;;;1.83;;
70026;SDS011;57506;50.092;15.804;2023-02-01T09:50:48;7.78;;;1.92;;
70026;SDS011;57506;50.092;15.804;2023-02-01T09:53:21;7.37;;;2.30;;
70026;SDS011;57506;50.092;15.804;2023-02-01T09:55:54;7.18;;;1.70;;
70026;SDS011;57506;50.092;15.804;2023-02-01T10:01:41;8.38;;;2.20;;
70026;SDS011;57506;50.092;15.804;2023-02-01T10:04:09;11.38;;;2.13;;
70026;SDS011;57506;50.092;15.804;2023-02-01T10:15:06;7.65;;;1.83;;
70026;SDS011;57506;50.092;15.804;2023-02-01T10:26:33;8.40;;;1.98;;
70026;SDS011;57506;50.092;15.804;2023-02-01T10:29:03;8.50;;;1.60;;
70026;SDS011;57506;50.092;15.804;2023-02-01T10:31:36;6.18;;;1.92;;
70026;SDS011;57506;50.092;15.804;2023-02-01T10:34:22;5.93;;;1.53;;
70026;SDS011;57506;50.092;15.804;2023-02-01T10:36:59;9.02;;;2.25;;
70026;SDS011;57506;50.092;15.804;2023-02-01T10:39:26;9.68;;;2.28;;
70026;SDS011;57506;50.092;15.804;2023-02-01T10:41:52;8.02;;;1.90;;
70026;SDS011;57506;50.092;15.804;2023-02-01T10:44:22;9.50;;;1.85;;
70026;SDS011;57506;50.092;15.804;2023-02-01T10:46:51;9.60;;;2.37;;
70026;SDS011;57506;50.092;15.804;2023-02-01T10:49:18;6.82;;;1.88;;
70026;SDS011;57506;50.092;15.804;2023-02-01T10:58:04;10.13;;;2.10;;
70026;SDS011;57506;50.092;15.804;2023-02-01T11:00:40;13.67;;;2.07;;
70026;SDS011;57506;50.092;15.804;2023-02-01T11:06:11;8.70;;;2.10;;
70026;SDS011;57506;50.092;15.804;2023-02-01T11:08:45;10.60;;;2.05;;
70026;SDS011;57506;50.092;15.804;2023-02-01T11:11:14;8.15;;;2.22;;
70026;SDS011;57506;50.092;15.804;2023-02-01T11:13:41;11.73;;;1.80;;
70026;SDS011;57506;50.092;15.804;2023-02-01T11:16:10;8.30;;;2.25;;
70026;SDS011;57506;50.092;15.804;2023-02-01T11:18:38;7.07;;;2.10;;
70026;SDS011;57506;50.092;15.804;2023-02-01T11:21:05;10.50;;;2.13;;
70026;SDS011;57506;50.092;15.804;2023-02-01T11:23:32;5.82;;;2.03;;
70026;SDS011;57506;50.092;15.804;2023-02-01T11:28:43;8.95;;;2.20;;
70026;SDS011;57506;50.092;15.804;2023-02-01T11:31:16;8.20;;;2.05;;
70026;SDS011;57506;50.092;15.804;2023-02-01T11:33:58;10.70;;;2.03;;
70026;SDS011;57506;50.092;15.804;2023-02-01T11:36:30;7.40;;;2.42;;
70026;SDS011;57506;50.092;15.804;2023-02-01T11:41:54;10.57;;;2.38;;
70026;SDS011;57506;50.092;15.804;2023-02-01T11:49:46;10.60;;;2.30;;
70026;SDS011;57506;50.092;15.804;2023-02-01T11:57:56;9.70;;;2.70;;
70026;SDS011;57506;50.092;15.804;2023-02-01T12:11:30;9.20;;;2.30;;
70026;SDS011;57506;50.092;15.804;2023-02-01T12:17:05;8.95;;;2.30;;
70026;SDS011;57506;50.092;15.804;2023-02-01T12:28:06;11.35;;;2.60;;
70026;SDS011;57506;50.092;15.804;2023-02-01T12:36:16;10.85;;;3.10;;
70026;SDS011;57506;50.092;15.804;2023-02-01T12:39:02;13.10;;;3.10;;
70026;SDS011;57506;50.092;15.804;2023-02-01T12:44:18;10.52;;;3.10;;
70026;SDS011;57506;50.092;15.804;2023-02-01T12:47:00;13.85;;;3.53;;
70026;SDS011;57506;50.092;15.804;2023-02-01T12:52:35;13.67;;;3.10;;
70026;SDS011;57506;50.092;15.804;2023-02-01T12:57:41;11.55;;;3.00;;
70026;SDS011;57506;50.092;15.804;2023-02-01T13:08:12;9.23;;;2.60;;
70026;SDS011;57506;50.092;15.804;2023-02-01T13:13:31;5.75;;;2.00;;
70026;SDS011;57506;50.092;15.804;2023-02-01T13:16:14;9.02;;;2.20;;
70026;SDS011;57506;50.092;15.804;2023-02-01T13:18:46;12.97;;;1.93;;
70026;SDS011;57506;50.092;15.804;2023-02-01T13:21:17;9.32;;;2.05;;
70026;SDS011;57506;50.092;15.804;2023-02-01T13:23:46;5.78;;;1.55;;
70026;SDS011;57506;50.092;15.804;2023-02-01T13:26:13;10.73;;;1.70;;
70026;SDS011;57506;50.092;15.804;2023-02-01T13:31:18;9.73;;;1.85;;
70026;SDS011;57506;50.092;15.804;2023-02-01T13:33:55;9.20;;;2.10;;
70026;SDS011;57506;50.092;15.804;2023-02-01T13:36:42;6.82;;;1.88;;
70026;SDS011;57506;50.092;15.804;2023-02-01T13:41:57;5.78;;;1.60;;
70026;SDS011;57506;50.092;15.804;2023-02-01T13:44:27;8.38;;;1.83;;
70026;SDS011;57506;50.092;15.804;2023-02-01T13:46:58;7.90;;;1.70;;
70026;SDS011;57506;50.092;15.804;2023-02-01T13:49:28;7.45;;;1.83;;
70026;SDS011;57506;50.092;15.804;2023-02-01T13:51:57;7.30;;;1.77;;
70026;SDS011;57506;50.092;15.804;2023-02-01T13:56:56;8.68;;;1.85;;
70026;SDS011;57506;50.092;15.804;2023-02-01T14:16:32;10.82;;;1.70;;
70026;SDS011;57506;50.092;15.804;2023-02-01T14:31:37;8.60;;;1.65;;
70026;SDS011;57506;50.092;15.804;2023-02-01T14:34:10;5.47;;;1.30;;
70026;SDS011;57506;50.092;15.804;2023-02-01T14:37:06;6.80;;;1.10;;
70026;SDS011;57506;50.092;15.804;2023-02-01T14:42:14;7.47;;;1.10;;
70026;SDS011;57506;50.092;15.804;2023-02-01T14:44:52;4.70;;;0.80;;
70026;SDS011;57506;50.092;15.804;2023-02-01T14:52:36;6.68;;;1.00;;
70026;SDS011;57506;50.092;15.804;2023-02-01T14:55:15;5.70;;;1.90;;
70026;SDS011;57506;50.092;15.804;2023-02-01T14:57:49;6.20;;;1.23;;
70026;SDS011;57506;50.092;15.804;2023-02-01T15:02:44;7.93;;;1.30;;
70026;SDS011;57506;50.092;15.804;2023-02-01T15:05:25;9.15;;;1.60;;
70026;SDS011;57506;50.092;15.804;2023-02-01T15:07:55;8.40;;;1.30;;
70026;SDS011;57506;50.092;15.804;2023-02-01T15:10:24;8.47;;;1.27;;
70026;SDS011;57506;50.092;15.804;2023-02-01T15:12:50;5.90;;;1.55;;
70026;SDS011;57506;50.092;15.804;2023-02-01T15:17:50;5.57;;;1.27;;
70026;SDS011;57506;50.092;15.804;2023-02-01T15:20:27;6.15;;;1.40;;
70026;SDS011;57506;50.092;15.804;2023-02-01T15:22:59;6.20;;;1.35;;
70026;SDS011;57506;50.092;15.804;2023-02-01T15:25:30;8.25;;;2.67;;
70026;SDS011;57506;50.092;15.804;2023-02-01T15:28:04;5.68;;;1.30;;
70026;SDS011;57506;50.092;15.804;2023-02-01T15:30:32;7.93;;;1.60;;
70026;SDS011;57506;50.092;15.804;2023-02-01T15:35:43;8.02;;;1.20;;
70026;SDS011;57506;50.092;15.804;2023-02-01T15:46:39;6.97;;;1.35;;
70026;SDS011;57506;50.092;15.804;2023-02-01T15:52:02;5.68;;;1.50;;
70026;SDS011;57506;50.092;15.804;2023-02-01T15:54:43;6.85;;;1.77;;
70026;SDS011;57506;50.092;15.804;2023-02-01T15:57:18;7.37;;;1.43;;
70026;SDS011;57506;50.092;15.804;2023-02-01T15:59:47;4.85;;;1.38;;
70026;SDS011;57506;50.092;15.804;2023-02-01T16:05:02;6.25;;;1.30;;
70026;SDS011;57506;50.092;15.804;2023-02-01T16:07:32;7.13;;;1.50;;
70026;SDS011;57506;50.092;15.804;2023-02-01T16:09:59;7.47;;;1.90;;
70026;SDS011;57506;50.092;15.804;2023-02-01T16:12:45;7.72;;;1.50;;
70026;SDS011;57506;50.092;15.804;2023-02-01T16:15:12;7.30;;;0.97;;
70026;SDS011;57506;50.092;15.804;2023-02-01T16:17:37;6.25;;;1.40;;
70026;SDS011;57506;50.092;15.804;2023-02-01T16:20:03;6.90;;;1.65;;
70026;SDS011;57506;50.092;15.804;2023-02-01T16:22:29;6.30;;;1.50;;
70026;SDS011;57506;50.092;15.804;2023-02-01T16:24:55;6.13;;;1.40;;
70026;SDS011;57506;50.092;15.804;2023-02-01T16:27:22;7.57;;;1.58;;
70026;SDS011;57506;50.092;15.804;2023-02-01T16:29:48;6.90;;;1.70;;
70026;SDS011;57506;50.092;15.804;2023-02-01T16:32:18;12.43;;;1.60;;
70026;SDS011;57506;50.092;15.804;2023-02-01T16:34:45;10.18;;;2.17;;
70026;SDS011;57506;50.092;15.804;2023-02-01T16:37:12;7.72;;;1.63;;
70026;SDS011;57506;50.092;15.804;2023-02-01T16:39:41;7.90;;;1.77;;
70026;SDS011;57506;50.092;15.804;2023-02-01T16:42:12;6.70;;;1.57;;
70026;SDS011;57506;50.092;15.804;2023-02-01T16:44:39;11.55;;;1.92;;
70026;SDS011;57506;50.092;15.804;2023-02-01T16:47:23;7.03;;;2.35;;
70026;SDS011;57506;50.092;15.804;2023-02-01T16:49:49;10.33;;;1.73;;
70026;SDS011;57506;50.092;15.804;2023-02-01T16:52:18;5.38;;;1.70;;
70026;SDS011;57506;50.092;15.804;2023-02-01T16:54:46;6.88;;;1.63;;
70026;SDS011;57506;50.092;15.804;2023-02-01T16:57:16;6.63;;;2.15;;
70026;SDS011;57506;50.092;15.804;2023-02-01T16:59:43;9.23;;;2.00;;
70026;SDS011;57506;50.092;15.804;2023-02-01T17:02:13;4.55;;;1.38;;
70026;SDS011;57506;50.092;15.804;2023-02-01T17:04:41;7.00;;;1.73;;
70026;SDS011;57506;50.092;15.804;2023-02-01T17:07:10;10.02;;;1.48;;
70026;SDS011;57506;50.092;15.804;2023-02-01T17:09:38;6.50;;;1.33;;
70026;SDS011;57506;50.092;15.804;2023-02-01T17:12:05;5.67;;;1.20;;
70026;SDS011;57506;50.092;15.804;2023-02-01T17:14:32;9.85;;;1.80;;
70026;SDS011;57506;50.092;15.804;2023-02-01T17:17:01;7.00;;;1.90;;
70026;SDS011;57506;50.092;15.804;2023-02-01T17:19:27;7.40;;;2.10;;
70026;SDS011;57506;50.092;15.804;2023-02-01T17:21:53;7.00;;;1.83;;
70026;SDS011;57506;50.092;15.804;2023-02-01T17:24:24;6.75;;;1.80;;
70026;SDS011;57506;50.092;15.804;2023-02-01T17:26:52;11.10;;;2.28;;
70026;SDS011;57506;50.092;15.804;2023-02-01T17:29:18;7.67;;;1.90;;
70026;SDS011;57506;50.092;15.804;2023-02-01T17:31:45;13.82;;;2.40;;
70026;SDS011;57506;50.092;15.804;2023-02-01T17:34:14;8.70;;;2.13;;
70026;SDS011;57506;50.092;15.804;2023-02-01T17:36:41;7.63;;;2.07;;
70026;SDS011;57506;50.092;15.804;2023-02-01T17:39:08;7.72;;;1.52;;
70026;SDS011;57506;50.092;15.804;2023-02-01T17:41:35;10.75;;;2.08;;
70026;SDS011;57506;50.092;15.804;2023-02-01T17:44:02;6.78;;;2.17;;
70026;SDS011;57506;50.092;15.804;2023-02-01T17:46:29;6.32;;;2.00;;
70026;SDS011;57506;50.092;15.804;2023-02-01T17:48:56;9.80;;;1.87;;
70026;SDS011;57506;50.092;15.804;2023-02-01T17:51:22;9.75;;;2.08;;
70026;SDS011;57506;50.092;15.804;2023-02-01T17:53:51;9.02;;;1.98;;
70026;SDS011;57506;50.092;15.804;2023-02-01T17:56:18;7.97;;;1.87;;
70026;SDS011;57506;50.092;15.804;2023-02-01T17:58:51;6.38;;;1.70;;
70026;SDS011;57506;50.092;15.804;2023-02-01T18:01:20;9.40;;;1.70;;
70026;SDS011;57506;50.092;15.804;2023-02-01T18:03:47;10.65;;;2.22;;
70026;SDS011;57506;50.092;15.804;2023-02-01T18:06:14;8.93;;;1.73;;
70026;SDS011;57506;50.092;15.804;2023-02-01T18:08:42;10.70;;;2.23;;
70026;SDS011;57506;50.092;15.804;2023-02-01T18:11:10;10.38;;;2.58;;
70026;SDS011;57506;50.092;15.804;2023-02-01T18:13:44;8.13;;;2.00;;
70026;SDS011;57506;50.092;15.804;2023-02-01T18:18:48;10.10;;;2.00;;
70026;SDS011;57506;50.092;15.804;2023-02-01T18:21:15;11.83;;;2.30;;
70026;SDS011;57506;50.092;15.804;2023-02-01T18:23:42;7.22;;;2.10;;